PWSweather.com
Personal Weather Stations
Station Observations
KWIPARKF
Flambeau River State Forest, Park Falls, WI 54552

Flambeau River State ForestPark Falls, WI 54552

Lat: 45.81943, Lon: -90.61676

Elevation: 1476

Station Type: Davis Vantage Pro2 Plus

Latest ConditionsUpdated 7:40:01 PM CST Wednesday, Jan 16, 2019
Currently Today's Max Today's Min Today's Average
Temperature 10.0°F-12.2°C 18.6°F-7.4°C 9.8°F-12.3°C 13.7°F-10.2°C
Dew Point 5.0°F-15.0°C 12.3°F-10.9°C 5.0°F-15.0°C 7.2°F-13.8°C
Winds Calm Calm 4.6 mph -7.4 kmh - - 0.1 mph 0.2 kmh
Wind Gusts -- 15.0 mph24.1 kmh - -
Humidity 80% 83% 57% 76%
Pressure 30.36 in1028.1 mb 30.42 in1030.1 mb 30.18 in1022.0 mb -
Hour Temp Dew Point Humidity Winds Wind Gusts Pressure Precip Precip Rate Daily Precip Total
07:40 PM 10.0°F-12.2°C 5.0°F-15.0°C 80% Calm Calm -- 30.36 in1028.1 mb - 0.00 in0.0 mm 0.00 in0.0 mm
07:30 PM 10.3°F-12.1°C 5.1°F-14.9°C 79% Calm Calm -- 30.37 in1028.4 mb - 0.00 in0.0 mm 0.00 in0.0 mm
07:20 PM 10.7°F-11.8°C 5.5°F-14.7°C 79% Calm Calm -- 30.37 in1028.4 mb - 0.00 in0.0 mm 0.00 in0.0 mm
07:10 PM 11.2°F-11.6°C 5.7°F-14.6°C 78% Calm Calm -- 30.37 in1028.4 mb - 0.00 in0.0 mm 0.00 in0.0 mm
07:00 PM 11.6°F-11.3°C 6.1°F-14.4°C 78% Calm Calm -- 30.37 in1028.4 mb - 0.00 in0.0 mm 0.00 in0.0 mm
06:50 PM 12.1°F-11.1°C 6.3°F-14.3°C 77% Calm Calm -- 30.37 in1028.4 mb - 0.00 in0.0 mm 0.00 in0.0 mm
06:40 PM 12.5°F-10.8°C 6.4°F-14.2°C 76% Calm Calm -- 30.37 in1028.4 mb - 0.00 in0.0 mm 0.00 in0.0 mm
06:30 PM 13.0°F-10.6°C 6.8°F-14.0°C 76% Calm Calm -- 30.38 in1028.8 mb - 0.00 in0.0 mm 0.00 in0.0 mm
06:20 PM 13.4°F-10.3°C 7.0°F-13.9°C 75% Calm Calm -- 30.38 in1028.8 mb - 0.00 in0.0 mm 0.00 in0.0 mm
06:10 PM 13.7°F-10.2°C 7.2°F-13.8°C 75% Calm Calm -- 30.38 in1028.8 mb - 0.00 in0.0 mm 0.00 in0.0 mm
06:00 PM 14.1°F-9.9°C 7.6°F-13.6°C 75% Calm Calm -- 30.38 in1028.8 mb - 0.00 in0.0 mm 0.00 in0.0 mm
05:50 PM 14.5°F-9.7°C 7.4°F-13.7°C 73% Calm Calm -- 30.38 in1028.8 mb - 0.00 in0.0 mm 0.00 in0.0 mm
05:40 PM 15.1°F-9.4°C 7.7°F-13.5°C 72% Calm Calm -- 30.38 in1028.8 mb - 0.00 in0.0 mm 0.00 in0.0 mm
05:30 PM 15.7°F-9.1°C 7.6°F-13.6°C 70% Calm Calm -- 30.37 in1028.4 mb - 0.00 in0.0 mm 0.00 in0.0 mm
05:20 PM 16.5°F-8.6°C 8.1°F-13.3°C 69% Calm Calm -- 30.37 in1028.4 mb - 0.00 in0.0 mm 0.00 in0.0 mm
05:10 PM 17.0°F-8.3°C 8.6°F-13.0°C 69% Calm Calm -- 30.37 in1028.4 mb - 0.00 in0.0 mm 0.00 in0.0 mm
05:00 PM 17.5°F-8.1°C 8.7°F-12.9°C 68% Calm Calm -- 30.37 in1028.4 mb - 0.00 in0.0 mm 0.00 in0.0 mm
04:50 PM 17.9°F-7.8°C 8.8°F-12.9°C 67% Calm Calm -- 30.37 in1028.4 mb - 0.00 in0.0 mm 0.00 in0.0 mm
04:40 PM 18.2°F-7.7°C 9.1°F-12.7°C 67% Calm Calm -- 30.37 in1028.4 mb - 0.00 in0.0 mm 0.00 in0.0 mm
04:30 PM 18.2°F-7.7°C 8.1°F-13.3°C 64% Calm Calm -- 30.37 in1028.4 mb - 0.00 in0.0 mm 0.00 in0.0 mm
04:20 PM 18.2°F-7.7°C 7.3°F-13.7°C 62% Calm Calm -- 30.37 in1028.4 mb - 0.00 in0.0 mm 0.00 in0.0 mm
04:10 PM 18.6°F-7.4°C 7.0°F-13.9°C 60% Calm Calm -- 30.37 in1028.4 mb - 0.00 in0.0 mm 0.00 in0.0 mm
04:00 PM 18.6°F-7.4°C 6.6°F-14.1°C 59% Calm Calm -- 30.37 in1028.4 mb - 0.00 in0.0 mm 0.00 in0.0 mm
03:50 PM 18.2°F-7.7°C 5.5°F-14.7°C 57% Calm Calm -- 30.38 in1028.8 mb - 0.00 in0.0 mm 0.00 in0.0 mm
03:40 PM 18.0°F-7.8°C 5.7°F-14.6°C 58% Calm Calm -- 30.37 in1028.4 mb - 0.00 in0.0 mm 0.00 in0.0 mm
03:30 PM 18.1°F-7.7°C 6.2°F-14.3°C 59% Calm Calm -- 30.38 in1028.8 mb - 0.00 in0.0 mm 0.00 in0.0 mm
03:20 PM 18.1°F-7.7°C 6.2°F-14.3°C 59% Calm Calm -- 30.37 in1028.4 mb - 0.00 in0.0 mm 0.00 in0.0 mm
03:10 PM 17.9°F-7.8°C 5.6°F-14.7°C 58% Calm Calm -- 30.37 in1028.4 mb - 0.00 in0.0 mm 0.00 in0.0 mm
03:00 PM 17.9°F-7.8°C 6.4°F-14.2°C 60% Calm Calm -- 30.37 in1028.4 mb - 0.00 in0.0 mm 0.00 in0.0 mm
02:50 PM 17.9°F-7.8°C 6.7°F-14.1°C 61% Calm Calm -- 30.38 in1028.8 mb - 0.00 in0.0 mm 0.00 in0.0 mm
02:40 PM 17.7°F-7.9°C 6.5°F-14.2°C 61% Calm Calm -- 30.38 in1028.8 mb - 0.00 in0.0 mm 0.00 in0.0 mm
02:30 PM 17.8°F-7.9°C 6.2°F-14.3°C 60% Calm Calm -- 30.38 in1028.8 mb - 0.00 in0.0 mm 0.00 in0.0 mm
02:20 PM 17.7°F-7.9°C 6.5°F-14.2°C 61% Calm Calm -- 30.38 in1028.8 mb - 0.00 in0.0 mm 0.00 in0.0 mm
02:10 PM 17.7°F-7.9°C 6.2°F-14.3°C 60% Calm Calm -- 30.38 in1028.8 mb - 0.00 in0.0 mm 0.00 in0.0 mm
02:00 PM 18.2°F-7.7°C 7.4°F-13.7°C 62% Calm Calm -- 30.38 in1028.8 mb - 0.00 in0.0 mm 0.00 in0.0 mm
01:50 PM 18.1°F-7.7°C 7.3°F-13.7°C 62% Calm Calm -- 30.38 in1028.8 mb - 0.00 in0.0 mm 0.00 in0.0 mm
01:40 PM 17.4°F-8.1°C 7.0°F-13.9°C 63% Calm Calm -- 30.38 in1028.8 mb - 0.00 in0.0 mm 0.00 in0.0 mm
01:30 PM 17.2°F-8.2°C 7.1°F-13.8°C 64% Calm Calm -- 30.38 in1028.8 mb - 0.00 in0.0 mm 0.00 in0.0 mm
01:20 PM 16.9°F-8.4°C 6.8°F-14.0°C 64% Calm Calm -- 30.38 in1028.8 mb - 0.00 in0.0 mm 0.00 in0.0 mm
01:10 PM 16.9°F-8.4°C 6.5°F-14.2°C 63% Calm Calm -- 30.39 in1029.1 mb - 0.00 in0.0 mm 0.00 in0.0 mm
01:00 PM 17.1°F-8.3°C 7.6°F-13.6°C 66% Calm Calm -- 30.39 in1029.1 mb - 0.00 in0.0 mm 0.00 in0.0 mm
12:50 PM 16.8°F-8.4°C 7.4°F-13.7°C 66% Calm Calm -- 30.39 in1029.1 mb - 0.00 in0.0 mm 0.00 in0.0 mm
12:40 PM 15.7°F-9.1°C 7.0°F-13.9°C 68% Calm Calm -- 30.39 in1029.1 mb - 0.00 in0.0 mm 0.00 in0.0 mm
12:30 PM 15.1°F-9.4°C 7.0°F-13.9°C 70% Calm Calm -- 30.39 in1029.1 mb - 0.00 in0.0 mm 0.00 in0.0 mm
12:20 PM 14.9°F-9.5°C 7.2°F-13.8°C 71% Calm Calm -- 30.40 in1029.5 mb - 0.00 in0.0 mm 0.00 in0.0 mm
12:10 PM 14.9°F-9.5°C 7.5°F-13.6°C 72% Calm Calm -- 30.40 in1029.5 mb - 0.00 in0.0 mm 0.00 in0.0 mm
12:00 PM 14.2°F-9.9°C 7.1°F-13.8°C 73% Calm Calm -- 30.40 in1029.5 mb - 0.00 in0.0 mm 0.00 in0.0 mm
11:50 AM 13.9°F-10.1°C 7.1°F-13.8°C 74% Calm Calm -- 30.41 in1029.8 mb - 0.00 in0.0 mm 0.00 in0.0 mm
11:40 AM 13.4°F-10.3°C 6.7°F-14.1°C 74% Calm Calm -- 30.41 in1029.8 mb - 0.00 in0.0 mm 0.00 in0.0 mm
11:30 AM 13.5°F-10.3°C 7.0°F-13.9°C 75% Calm Calm -- 30.41 in1029.8 mb - 0.00 in0.0 mm 0.00 in0.0 mm
11:20 AM 13.2°F-10.4°C 6.7°F-14.1°C 75% Calm Calm -- 30.42 in1030.1 mb - 0.00 in0.0 mm 0.00 in0.0 mm
11:10 AM 13.4°F-10.3°C 7.6°F-13.6°C 77% Calm Calm -- 30.42 in1030.1 mb - 0.00 in0.0 mm 0.00 in0.0 mm
11:00 AM 12.6°F-10.8°C 6.5°F-14.2°C 76% Calm Calm -- 30.42 in1030.1 mb - 0.00 in0.0 mm 0.00 in0.0 mm
10:50 AM 12.4°F-10.9°C 6.3°F-14.3°C 76% Calm Calm -- 30.42 in1030.1 mb - 0.00 in0.0 mm 0.00 in0.0 mm
10:40 AM 12.3°F-10.9°C 6.5°F-14.2°C 77% Calm Calm -- 30.42 in1030.1 mb - 0.00 in0.0 mm 0.00 in0.0 mm
10:30 AM 12.5°F-10.8°C 6.7°F-14.1°C 77% Calm Calm -- 30.42 in1030.1 mb - 0.00 in0.0 mm 0.00 in0.0 mm
10:20 AM 12.3°F-10.9°C 6.8°F-14.0°C 78% Calm Calm -- 30.42 in1030.1 mb - 0.00 in0.0 mm 0.00 in0.0 mm
10:10 AM 12.0°F-11.1°C 6.5°F-14.2°C 78% Calm Calm -- 30.41 in1029.8 mb - 0.00 in0.0 mm 0.00 in0.0 mm
10:00 AM 11.9°F-11.2°C 6.6°F-14.1°C 79% Calm Calm -- 30.42 in1030.1 mb - 0.00 in0.0 mm 0.00 in0.0 mm
09:50 AM 11.6°F-11.3°C 6.9°F-13.9°C 81% Calm Calm -- 30.41 in1029.8 mb - 0.00 in0.0 mm 0.00 in0.0 mm
09:40 AM 11.1°F-11.6°C 6.4°F-14.2°C 81% Calm Calm -- 30.41 in1029.8 mb - 0.00 in0.0 mm 0.00 in0.0 mm
09:30 AM 10.7°F-11.8°C 6.0°F-14.4°C 81% Calm Calm -- 30.41 in1029.8 mb - 0.00 in0.0 mm 0.00 in0.0 mm
09:20 AM 10.8°F-11.8°C 6.1°F-14.4°C 81% Calm Calm -- 30.40 in1029.5 mb - 0.00 in0.0 mm 0.00 in0.0 mm
09:10 AM 10.7°F-11.8°C 6.3°F-14.3°C 82% Calm Calm -- 30.40 in1029.5 mb - 0.00 in0.0 mm 0.00 in0.0 mm
09:00 AM 10.4°F-12.0°C 6.0°F-14.4°C 82% Calm Calm -- 30.39 in1029.1 mb - 0.00 in0.0 mm 0.00 in0.0 mm
08:50 AM 10.3°F-12.1°C 6.1°F-14.4°C 83% Calm Calm -- 30.39 in1029.1 mb - 0.00 in0.0 mm 0.00 in0.0 mm
08:40 AM 10.1°F-12.2°C 6.0°F-14.4°C 83% Calm Calm -- 30.38 in1028.8 mb - 0.00 in0.0 mm 0.00 in0.0 mm
08:30 AM 10.0°F-12.2°C 5.8°F-14.6°C 83% Calm Calm -- 30.38 in1028.8 mb - 0.00 in0.0 mm 0.00 in0.0 mm
08:20 AM 9.9°F-12.3°C 5.8°F-14.6°C 83% Calm Calm -- 30.38 in1028.8 mb - 0.00 in0.0 mm 0.00 in0.0 mm
08:10 AM 9.8°F-12.3°C 5.7°F-14.6°C 83% Calm Calm -- 30.37 in1028.4 mb - 0.00 in0.0 mm 0.00 in0.0 mm
08:00 AM 9.8°F-12.3°C 5.7°F-14.6°C 83% Calm Calm -- 30.37 in1028.4 mb - 0.00 in0.0 mm 0.00 in0.0 mm
07:50 AM 9.8°F-12.3°C 5.6°F-14.7°C 83% Calm Calm -- 30.36 in1028.1 mb - 0.00 in0.0 mm 0.00 in0.0 mm
07:40 AM 9.8°F-12.3°C 5.7°F-14.6°C 83% Calm Calm -- 30.36 in1028.1 mb - 0.00 in0.0 mm 0.00 in0.0 mm
07:30 AM 9.8°F-12.3°C 5.7°F-14.6°C 83% Calm Calm -- 30.35 in1027.8 mb - 0.00 in0.0 mm 0.00 in0.0 mm
07:20 AM 9.9°F-12.3°C 5.8°F-14.6°C 83% Calm Calm -- 30.35 in1027.8 mb - 0.00 in0.0 mm 0.00 in0.0 mm
07:10 AM 10.0°F-12.2°C 5.6°F-14.7°C 82% Calm Calm 1.2 mph1.9 kmh 30.34 in1027.4 mb - 0.00 in0.0 mm 0.00 in0.0 mm
07:00 AM 10.0°F-12.2°C 5.6°F-14.7°C 82% Calm Calm -- 30.34 in1027.4 mb - 0.00 in0.0 mm 0.00 in0.0 mm
06:50 AM 10.1°F-12.2°C 5.7°F-14.6°C 82% Calm Calm -- 30.34 in1027.4 mb - 0.00 in0.0 mm 0.00 in0.0 mm
06:40 AM 10.1°F-12.2°C 5.7°F-14.6°C 82% Calm Calm -- 30.34 in1027.4 mb - 0.00 in0.0 mm 0.00 in0.0 mm
06:30 AM 10.2°F-12.1°C 5.8°F-14.6°C 82% Calm Calm -- 30.34 in1027.4 mb - 0.00 in0.0 mm 0.00 in0.0 mm
06:20 AM 10.2°F-12.1°C 5.8°F-14.6°C 82% Calm Calm 2.3 mph3.7 kmh 30.33 in1027.1 mb - 0.00 in0.0 mm 0.00 in0.0 mm
06:10 AM 10.3°F-12.1°C 5.9°F-14.5°C 82% Calm Calm -- 30.33 in1027.1 mb - 0.00 in0.0 mm 0.00 in0.0 mm
06:00 AM 10.3°F-12.1°C 5.9°F-14.5°C 82% Calm Calm -- 30.32 in1026.8 mb - 0.00 in0.0 mm 0.00 in0.0 mm
05:50 AM 10.4°F-12.0°C 6.0°F-14.4°C 82% Calm Calm -- 30.32 in1026.8 mb - 0.00 in0.0 mm 0.00 in0.0 mm
05:40 AM 10.5°F-11.9°C 6.1°F-14.4°C 82% Calm Calm -- 30.32 in1026.8 mb - 0.00 in0.0 mm 0.00 in0.0 mm
05:30 AM 10.5°F-11.9°C 6.4°F-14.2°C 83% Calm Calm -- 30.32 in1026.8 mb - 0.00 in0.0 mm 0.00 in0.0 mm
05:20 AM 10.6°F-11.9°C 6.2°F-14.3°C 82% Calm Calm -- 30.32 in1026.8 mb - 0.00 in0.0 mm 0.00 in0.0 mm
05:10 AM 10.6°F-11.9°C 6.2°F-14.3°C 82% Calm Calm -- 30.32 in1026.8 mb - 0.00 in0.0 mm 0.00 in0.0 mm
05:00 AM 10.6°F-11.9°C 5.9°F-14.5°C 81% Calm Calm -- 30.32 in1026.8 mb - 0.00 in0.0 mm 0.00 in0.0 mm
04:50 AM 10.7°F-11.8°C 6.1°F-14.4°C 81% Calm Calm -- 30.32 in1026.8 mb - 0.00 in0.0 mm 0.00 in0.0 mm
04:40 AM 10.9°F-11.7°C 6.2°F-14.3°C 81% Calm Calm -- 30.31 in1026.4 mb - 0.00 in0.0 mm 0.00 in0.0 mm
04:30 AM 11.1°F-11.6°C 6.4°F-14.2°C 81% Calm Calm -- 30.31 in1026.4 mb - 0.00 in0.0 mm 0.00 in0.0 mm
04:20 AM 11.3°F-11.5°C 6.6°F-14.1°C 81% Calm Calm -- 30.30 in1026.1 mb - 0.00 in0.0 mm 0.00 in0.0 mm
04:10 AM 11.4°F-11.4°C 6.7°F-14.1°C 81% Calm Calm -- 30.30 in1026.1 mb - 0.00 in0.0 mm 0.00 in0.0 mm
04:00 AM 11.7°F-11.3°C 7.3°F-13.7°C 82% Calm Calm -- 30.29 in1025.7 mb - 0.00 in0.0 mm 0.00 in0.0 mm
03:50 AM 11.8°F-11.2°C 7.1°F-13.8°C 81% Calm Calm -- 30.29 in1025.7 mb - 0.00 in0.0 mm 0.00 in0.0 mm
03:40 AM 12.0°F-11.1°C 7.3°F-13.7°C 81% 2.3 mph NNW3.7 kmh NNW 5.8 mph9.3 kmh 30.28 in1025.4 mb - 0.00 in0.0 mm 0.00 in0.0 mm
03:30 AM 12.3°F-10.9°C 7.6°F-13.6°C 81% Calm Calm -- 30.28 in1025.4 mb - 0.00 in0.0 mm 0.00 in0.0 mm
03:20 AM 12.7°F-10.7°C 8.0°F-13.3°C 81% Calm Calm 1.2 mph1.9 kmh 30.27 in1025.1 mb - 0.00 in0.0 mm 0.00 in0.0 mm
03:10 AM 12.9°F-10.6°C 8.2°F-13.2°C 81% Calm Calm -- 30.27 in1025.1 mb - 0.00 in0.0 mm 0.00 in0.0 mm
03:00 AM 13.3°F-10.4°C 8.6°F-13.0°C 81% Calm Calm -- 30.26 in1024.7 mb - 0.00 in0.0 mm 0.00 in0.0 mm
02:50 AM 13.7°F-10.2°C 9.0°F-12.8°C 81% Calm Calm -- 30.26 in1024.7 mb - 0.00 in0.0 mm 0.00 in0.0 mm
02:40 AM 14.1°F-9.9°C 9.9°F-12.3°C 83% Calm Calm -- 30.27 in1025.1 mb - 0.00 in0.0 mm 0.00 in0.0 mm
02:30 AM 14.2°F-9.9°C 9.4°F-12.6°C 81% Calm Calm -- 30.26 in1024.7 mb - 0.00 in0.0 mm 0.00 in0.0 mm
02:20 AM 14.3°F-9.8°C 9.3°F-12.6°C 80% Calm Calm -- 30.26 in1024.7 mb - 0.00 in0.0 mm 0.00 in0.0 mm
02:10 AM 14.5°F-9.7°C 9.4°F-12.6°C 80% Calm Calm -- 30.25 in1024.4 mb - 0.00 in0.0 mm 0.00 in0.0 mm
02:00 AM 14.7°F-9.6°C 9.6°F-12.4°C 80% Calm Calm 2.3 mph3.7 kmh 30.25 in1024.4 mb - 0.00 in0.0 mm 0.00 in0.0 mm
01:50 AM 14.8°F-9.6°C 10.0°F-12.2°C 81% Calm Calm -- 30.24 in1024.0 mb - 0.00 in0.0 mm 0.00 in0.0 mm
01:40 AM 15.1°F-9.4°C 10.9°F-11.7°C 83% 4.6 mph NW7.4 kmh NW 15.0 mph24.1 kmh 30.23 in1023.7 mb - 0.00 in0.0 mm 0.00 in0.0 mm
01:30 AM 15.3°F-9.3°C 11.1°F-11.6°C 83% Calm Calm 2.3 mph3.7 kmh 30.22 in1023.4 mb - 0.00 in0.0 mm 0.00 in0.0 mm
01:20 AM 15.4°F-9.2°C 10.9°F-11.7°C 82% Calm Calm -- 30.22 in1023.4 mb - 0.00 in0.0 mm 0.00 in0.0 mm
01:10 AM 15.5°F-9.2°C 11.0°F-11.7°C 82% 1.2 mph NNW1.9 kmh NNW 11.5 mph18.5 kmh 30.21 in1023.0 mb - 0.00 in0.0 mm 0.00 in0.0 mm
01:00 AM 15.5°F-9.2°C 11.0°F-11.7°C 82% Calm Calm -- 30.21 in1023.0 mb - 0.00 in0.0 mm 0.00 in0.0 mm
12:50 AM 15.7°F-9.1°C 10.9°F-11.7°C 81% Calm Calm -- 30.20 in1022.7 mb - 0.00 in0.0 mm 0.00 in0.0 mm
12:40 AM 15.8°F-9.0°C 11.3°F-11.5°C 82% Calm Calm 1.2 mph1.9 kmh 30.20 in1022.7 mb - 0.00 in0.0 mm 0.00 in0.0 mm
12:30 AM 15.9°F-8.9°C 11.4°F-11.4°C 82% Calm Calm -- 30.20 in1022.7 mb - 0.00 in0.0 mm 0.00 in0.0 mm
12:20 AM 16.1°F-8.8°C 11.6°F-11.3°C 82% Calm Calm -- 30.19 in1022.4 mb - 0.00 in0.0 mm 0.00 in0.0 mm
12:10 AM 16.3°F-8.7°C 11.5°F-11.4°C 81% Calm Calm 11.5 mph18.5 kmh 30.19 in1022.4 mb - 0.00 in0.0 mm 0.00 in0.0 mm
12:00 AM 16.8°F-8.4°C 12.3°F-10.9°C 82% Calm Calm -- 30.18 in1022.0 mb - 0.00 in0.0 mm 0.00 in0.0 mm